Impacts METAR Board
IDs:

KBAZ - New Braunfels Muni, TX, US

Updated at: 0200 UTC 15 Aug 2020
Potential Impact None Slight Moderate High
Time 14/14Z 14/15Z 14/16Z 14/17Z 14/18Z 14/19Z 14/20Z 14/21Z 14/22Z 14/23Z 15/00Z 15/01Z 15/02Z
Temp84 88 92 97 98 101 103 104 104 106 103 100 95
Dewpt73 72 68 64 62 59 60 58 57 56 58 59 62
Altim29.96 29.96 29.96 29.95 29.94 29.91 29.89 29.86 29.84 29.83 29.82 29.83 29.84
VIS10 10 10 10 10 10 10 10 10 10 10 10 10
CIG-- -- -- -- -- -- -- -- -- -- -- -- --
CoverCLRCLRCLRCLRCLRCLRCLRCLRCLRCLRCLRCLRCLR
FltCatVFRVFRVFRVFRVFRVFRVFRVFRVFRVFRVFRVFRVFR
WX--------------------------
WDir2302202202402001902001800210200190180
WSpd14 12 12 12 9 9 11 11 6 10 8 7 9
WGst-- -- 19 -- -- 18 20 18 -- 18 18 -- --
Raw hourly METARs
KBAZ 141351Z 23014KT 10SM CLR 29/23 A2996 RMK AO2 SLP135 T02890228
KBAZ 141451Z 22012KT 10SM CLR 31/22 A2996 RMK AO2 SLP135 T03110222 51004
KBAZ 141551Z 22012G19KT 10SM CLR 33/20 A2996 RMK AO2 SLP134 T03330200
KBAZ 141651Z 24012KT 10SM CLR 36/18 A2995 RMK AO2 SLP132 T03610178
KBAZ 141751Z 20009KT 10SM CLR 37/17 A2994 RMK AO2 SLP126 T03670167 10372 20261 58008
KBAZ 141851Z 19009G18KT 10SM CLR 38/15 A2991 RMK AO2 SLP118 T03830150
KBAZ 141951Z 20011G20KT 10SM CLR 39/16 A2989 RMK AO2 SLP109 T03940156
KBAZ 142051Z 18011G18KT 10SM CLR 40/14 A2986 RMK AO2 SLP100 T04000144 58026
KBAZ 142151Z VRB06KT 10SM CLR 40/14 A2984 RMK AO2 SLP093 T04000139
KBAZ 142251Z 21010G18KT 10SM CLR 41/13 A2983 RMK AO2 SLP089 T04110133
KBAZ 142351Z AUTO 20008G18KT 10SM CLR 39/14 A2982 RMK AO2 SLP085 T03940144 10411 20367 56014
KBAZ 150051Z AUTO 19007KT 10SM CLR 38/15 A2983 RMK AO2 SLP089 T03780150
KBAZ 150151Z AUTO 18009KT 10SM CLR 35/17 A2984 RMK AO2 SLP095 T03500167